Time;durP1;ratioP1;P1;durP2;ratioP2;P2;SDS_P1;SDS_P2;PMS_P1;PMS_P2;Temp;Humidity;BMP_temperature;BMP_pressure;BME280_temperature;BME280_humidity;BME280_pressure;Samples;Min_cycle;Max_cycle;Signal;HPM_P1;HPM_P2
2022/06/21 00:01:14;;;;;;;2.25;1.25;;;13.50;62.10;;;;;;5013077;28;20269;-47
2022/06/21 00:03:45;;;;;;;1.60;1.35;;;13.50;62.10;;;;;;5013615;28;20196;-48
2022/06/21 00:06:18;;;;;;;1.23;1.10;;;13.50;62.10;;;;;;5011868;28;20224;-50
2022/06/21 00:08:49;;;;;;;1.40;1.27;;;13.50;62.10;;;;;;5033344;28;20200;-50
2022/06/21 00:11:24;;;;;;;1.48;1.20;;;13.60;62.20;;;;;;5028056;28;20679;-48
2022/06/21 00:13:55;;;;;;;1.85;1.40;;;13.60;62.30;;;;;;5013274;28;20660;-49
2022/06/21 00:16:30;;;;;;;1.48;1.38;;;13.60;62.30;;;;;;5012553;28;20204;-48
2022/06/21 00:19:02;;;;;;;1.55;1.42;;;13.60;62.30;;;;;;5013372;28;20303;-50
2022/06/21 00:21:36;;;;;;;2.63;1.35;;;13.60;62.40;;;;;;5013039;28;20197;-46
2022/06/21 00:24:08;;;;;;;1.27;1.17;;;13.60;62.30;;;;;;5012801;28;20208;-49
2022/06/21 00:26:39;;;;;;;1.20;1.10;;;13.70;62.30;;;;;;5013549;28;20259;-48
2022/06/21 00:29:09;;;;;;;1.20;1.10;;;13.70;62.50;;;;;;5013186;28;20873;-50
2022/06/21 00:31:46;;;;;;;1.30;1.10;;;13.70;62.60;;;;;;5011994;28;20220;-47
2022/06/21 00:34:19;;;;;;;1.80;1.70;;;13.70;62.70;;;;;;5039935;22;20235;-57
2022/06/21 00:36:51;;;;;;;1.20;1.10;;;13.80;62.70;;;;;;5031105;28;20231;-57
2022/06/21 00:39:22;;;;;;;1.23;1.00;;;13.80;62.50;;;;;;5032457;28;20220;-56
2022/06/21 00:41:56;;;;;;;1.10;1.00;;;13.80;62.40;;;;;;5023764;28;20189;-57
2022/06/21 00:44:32;;;;;;;1.13;0.93;;;13.80;62.30;;;;;;5012894;28;20544;-56
2022/06/21 00:47:09;;;;;;;1.13;1.02;;;13.80;62.20;;;;;;5012106;28;20684;-56
2022/06/21 00:49:48;;;;;;;1.25;1.05;;;13.90;62.30;;;;;;5012018;28;20212;-57
2022/06/21 00:52:23;;;;;;;1.45;0.90;;;13.90;62.30;;;;;;5012034;28;20192;-58
2022/06/21 00:54:59;;;;;;;1.30;1.20;;;14.00;62.20;;;;;;5012460;28;20200;-56
2022/06/21 00:57:37;;;;;;;1.20;1.10;;;14.00;62.20;;;;;;5012683;28;20192;-57
2022/06/21 01:00:28;;;;;;;1.27;1.17;;;14.00;62.10;;;;;;5012615;28;20216;-56
2022/06/21 01:03:02;;;;;;;1.88;1.20;;;14.00;62.10;;;;;;5012345;28;20649;-56
2022/06/21 01:05:36;;;;;;;1.67;1.15;;;14.00;62.10;;;;;;5012649;28;20216;-56
2022/06/21 01:08:09;;;;;;;1.00;0.90;;;14.10;62.00;;;;;;5012211;28;20204;-58
2022/06/21 01:10:41;;;;;;;1.25;1.15;;;14.10;62.10;;;;;;5011736;28;20653;-57
2022/06/21 01:13:17;;;;;;;1.25;0.90;;;14.10;62.00;;;;;;5012602;28;20219;-56
2022/06/21 01:15:51;;;;;;;1.55;1.20;;;14.10;61.90;;;;;;5012213;28;20200;-57
2022/06/21 01:18:25;;;;;;;1.17;1.08;;;14.10;61.90;;;;;;5011687;28;20189;-57
2022/06/21 01:20:59;;;;;;;1.17;1.00;;;14.10;61.80;;;;;;5012067;28;20216;-55
2022/06/21 01:23:54;;;;;;;0.95;0.80;;;14.10;61.80;;;;;;5011891;28;20196;-56
2022/06/21 01:26:45;;;;;;;1.20;1.10;;;14.20;61.90;;;;;;5006774;28;20220;-57
2022/06/21 01:29:19;;;;;;;1.10;1.00;;;14.20;61.70;;;;;;5011832;28;20213;-57
2022/06/21 01:31:50;;;;;;;1.48;1.23;;;14.20;61.60;;;;;;5011835;28;20192;-57
2022/06/21 01:34:23;;;;;;;1.27;1.17;;;14.20;61.60;;;;;;5011934;28;20209;-57
2022/06/21 01:37:03;;;;;;;1.13;1.02;;;14.20;61.60;;;;;;5010819;28;20185;-57
2022/06/21 01:39:38;;;;;;;1.13;0.98;;;14.30;61.60;;;;;;5010890;28;20220;-57
2022/06/21 01:42:15;;;;;;;1.10;1.00;;;14.30;61.60;;;;;;5011590;28;20204;-56
2022/06/21 01:44:47;;;;;;;1.10;0.93;;;14.30;61.60;;;;;;5011075;28;20694;-57
2022/06/21 01:47:21;;;;;;;1.00;0.90;;;14.30;61.50;;;;;;5011276;28;20231;-57
2022/06/21 01:49:56;;;;;;;1.00;0.98;;;14.40;61.60;;;;;;5010814;28;20762;-56
2022/06/21 01:52:29;;;;;;;1.10;1.00;;;14.30;61.60;;;;;;5010414;28;20192;-57
2022/06/21 01:55:03;;;;;;;1.50;1.10;;;14.40;61.60;;;;;;5011728;28;20207;-57
2022/06/21 01:57:37;;;;;;;1.17;1.00;;;14.40;61.60;;;;;;5012127;28;20193;-56
2022/06/21 02:00:09;;;;;;;1.13;1.02;;;14.40;61.60;;;;;;5011084;28;20248;-57
2022/06/21 02:02:44;;;;;;;0.90;0.90;;;14.40;61.60;;;;;;5011486;28;20195;-55
2022/06/21 02:05:20;;;;;;;1.33;1.13;;;14.50;61.60;;;;;;5010661;28;20197;-57
2022/06/21 02:07:55;;;;;;;1.00;0.90;;;14.50;61.60;;;;;;5011486;28;20231;-57
2022/06/21 02:10:30;;;;;;;0.77;0.77;;;14.50;61.50;;;;;;5011056;28;20311;-57
2022/06/21 02:13:14;;;;;;;1.23;0.85;;;14.50;61.50;;;;;;5011327;28;20192;-56
2022/06/21 02:15:48;;;;;;;1.05;0.93;;;14.50;61.40;;;;;;5010641;28;20679;-57
2022/06/21 02:18:21;;;;;;;1.05;0.95;;;14.50;61.40;;;;;;5010809;28;20192;-58
2022/06/21 02:20:57;;;;;;;0.98;0.93;;;14.50;61.30;;;;;;5010182;28;20220;-58
2022/06/21 02:23:28;;;;;;;1.35;1.00;;;14.50;61.40;;;;;;5011121;28;20536;-58
2022/06/21 02:26:00;;;;;;;1.10;1.00;;;14.60;61.50;;;;;;5012038;28;20239;-57
2022/06/21 02:28:33;;;;;;;1.42;0.90;;;14.60;61.50;;;;;;5010977;28;20649;-55
2022/06/21 02:31:04;;;;;;;0.95;0.93;;;14.60;61.30;;;;;;5011116;28;20668;-57
2022/06/21 02:33:36;;;;;;;0.73;0.73;;;14.70;61.30;;;;;;5011126;28;20203;-58
2022/06/21 02:36:13;;;;;;;1.20;0.90;;;14.70;61.30;;;;;;5012231;28;20559;-58
2022/06/21 02:38:48;;;;;;;1.10;0.98;;;14.70;61.20;;;;;;5030197;28;20200;-56
2022/06/21 02:41:25;;;;;;;0.80;0.80;;;14.70;61.20;;;;;;5017596;28;20204;-59
2022/06/21 02:44:00;;;;;;;1.10;1.00;;;14.80;61.20;;;;;;5004661;28;20207;-57
2022/06/21 02:46:33;;;;;;;1.20;1.10;;;14.80;61.10;;;;;;5008859;28;20224;-57
2022/06/21 02:49:09;;;;;;;0.80;0.80;;;14.80;61.10;;;;;;4991508;28;20843;-56
2022/06/21 02:51:43;;;;;;;0.80;0.80;;;14.80;61.00;;;;;;5003100;28;20188;-57
2022/06/21 02:54:21;;;;;;;1.48;0.82;;;14.80;61.00;;;;;;5010651;28;20196;-58
2022/06/21 02:56:56;;;;;;;1.40;0.70;;;14.80;60.90;;;;;;5011196;28;20199;-58
2022/06/21 02:59:29;;;;;;;0.80;0.80;;;14.90;61.00;;;;;;5010425;28;20748;-59
2022/06/21 03:02:04;;;;;;;1.00;0.77;;;14.90;61.00;;;;;;5010782;28;20200;-59
2022/06/21 03:04:40;;;;;;;1.00;0.90;;;14.90;61.00;;;;;;5010419;28;20204;-57
2022/06/21 03:07:16;;;;;;;0.98;0.82;;;15.00;61.00;;;;;;5019672;28;20223;-57
2022/06/21 03:09:47;;;;;;;1.33;0.70;;;15.00;61.00;;;;;;5030261;28;20223;-56
2022/06/21 03:12:21;;;;;;;0.98;0.90;;;15.00;61.00;;;;;;5013577;28;20672;-59
2022/06/21 03:14:57;;;;;;;1.00;0.68;;;15.00;61.00;;;;;;5010642;28;20203;-57
2022/06/21 03:17:34;;;;;;;0.93;0.90;;;15.10;60.90;;;;;;5010153;28;20580;-57
2022/06/21 03:20:06;;;;;;;1.35;1.25;;;15.10;60.80;;;;;;5009818;28;20215;-57
2022/06/21 03:22:38;;;;;;;0.90;0.90;;;15.10;60.80;;;;;;5009692;28;20201;-56
2022/06/21 03:25:19;;;;;;;0.85;0.85;;;15.10;60.70;;;;;;5009526;28;20197;-57
2022/06/21 03:27:55;;;;;;;0.98;0.80;;;15.20;60.80;;;;;;5009690;28;20219;-58
2022/06/21 03:30:31;;;;;;;1.00;0.95;;;15.20;60.70;;;;;;5009413;28;20231;-58
2022/06/21 03:33:04;;;;;;;0.88;0.88;;;15.20;60.60;;;;;;5010326;28;20207;-57
2022/06/21 03:35:36;;;;;;;1.02;0.90;;;15.20;60.70;;;;;;5009672;28;20189;-56
2022/06/21 03:38:08;;;;;;;1.00;0.90;;;15.30;60.80;;;;;;5028089;28;20227;-58
2022/06/21 03:43:29;;;;;;;1.10;1.00;;;15.30;60.90;;;;;;5010391;28;20680;-57
2022/06/21 03:46:07;;;;;;;1.20;1.00;;;15.30;61.00;;;;;;5010402;28;20189;-58
2022/06/21 03:48:43;;;;;;;1.23;1.10;;;15.30;61.00;;;;;;5010503;28;20196;-58
2022/06/21 03:51:18;;;;;;;1.02;0.93;;;15.40;60.90;;;;;;5013443;28;20208;-57
2022/06/21 03:53:53;;;;;;;0.80;0.80;;;15.40;60.90;;;;;;5013574;28;20196;-57
2022/06/21 03:56:29;;;;;;;0.85;0.75;;;15.40;60.80;;;;;;5013279;28;20657;-56
2022/06/21 03:59:07;;;;;;;1.15;0.80;;;15.50;60.80;;;;;;5013839;28;20583;-57
2022/06/21 04:01:44;;;;;;;0.80;0.77;;;15.50;60.60;;;;;;5013244;28;20195;-57
2022/06/21 04:04:20;;;;;;;1.23;1.13;;;15.50;60.50;;;;;;5013664;28;20266;-58
2022/06/21 04:06:56;;;;;;;0.85;0.80;;;15.60;60.50;;;;;;5020402;28;20587;-57
2022/06/21 04:09:30;;;;;;;1.40;1.30;;;15.60;60.50;;;;;;5033466;28;20228;-56
2022/06/21 04:12:09;;;;;;;31.38;26.10;;;15.60;60.40;;;;;;5022755;28;20196;-58
2022/06/21 04:14:46;;;;;;;21.13;18.80;;;15.60;60.10;;;;;;5012978;28;20197;-57
2022/06/21 04:17:27;;;;;;;17.98;16.00;;;15.60;60.00;;;;;;5012613;28;20201;-56
2022/06/21 04:20:08;;;;;;;15.73;12.75;;;15.60;60.00;;;;;;5012215;28;20704;-57
2022/06/21 04:22:41;;;;;;;17.02;13.55;;;15.60;60.00;;;;;;5012596;28;20197;-58
2022/06/21 04:25:16;;;;;;;15.15;12.43;;;15.60;59.90;;;;;;5012911;28;20197;-56
2022/06/21 04:27:51;;;;;;;14.88;11.15;;;15.70;60.00;;;;;;5013241;28;20230;-57
2022/06/21 04:30:27;;;;;;;13.85;11.07;;;15.70;60.00;;;;;;5012281;28;20213;-57
2022/06/21 04:33:06;;;;;;;14.07;10.95;;;15.70;60.00;;;;;;5013453;28;20203;-57
2022/06/21 04:35:41;;;;;;;11.65;9.65;;;15.70;59.90;;;;;;5012825;28;20196;-58
2022/06/21 04:38:19;;;;;;;11.85;9.63;;;15.70;60.00;;;;;;5012435;28;20395;-58
2022/06/21 04:40:54;;;;;;;13.80;9.00;;;15.70;59.90;;;;;;5012562;28;20226;-57
2022/06/21 04:43:30;;;;;;;12.00;9.15;;;15.70;59.80;;;;;;4993454;28;20663;-57
2022/06/21 04:46:05;;;;;;;10.85;9.60;;;15.70;59.60;;;;;;4992979;28;20205;-58
2022/06/21 04:48:43;;;;;;;12.25;9.60;;;15.70;59.50;;;;;;4992160;28;20228;-57
2022/06/21 04:51:18;;;;;;;11.25;8.35;;;15.70;59.40;;;;;;4994369;28;20205;-57
2022/06/21 04:53:55;;;;;;;10.02;8.48;;;15.70;59.40;;;;;;5012564;28;20327;-55
2022/06/21 04:56:39;;;;;;;11.90;8.63;;;15.70;59.30;;;;;;5011465;28;20192;-57
2022/06/21 04:59:17;;;;;;;10.70;8.50;;;15.70;59.30;;;;;;5012368;28;20744;-58
2022/06/21 05:01:47;;;;;;;8.95;8.00;;;15.70;59.30;;;;;;5010097;28;20235;-56
2022/06/21 05:04:23;;;;;;;9.93;8.18;;;15.70;59.20;;;;;;5012265;28;20193;-57
2022/06/21 05:06:57;;;;;;;12.77;8.20;;;15.70;59.20;;;;;;5013061;28;20220;-56
2022/06/21 05:09:30;;;;;;;10.85;7.53;;;15.70;59.20;;;;;;5010515;28;20235;-58
2022/06/21 05:12:05;;;;;;;10.38;8.52;;;15.60;59.10;;;;;;5011881;28;20645;-56
2022/06/21 05:14:38;;;;;;;11.43;8.40;;;15.60;59.10;;;;;;5011476;28;20188;-56
2022/06/21 05:17:12;;;;;;;9.80;7.63;;;15.60;59.20;;;;;;5012377;28;20199;-58
2022/06/21 05:19:49;;;;;;;9.15;7.75;;;15.60;59.20;;;;;;5011434;28;20223;-58
2022/06/21 05:22:24;;;;;;;11.50;8.02;;;15.60;59.20;;;;;;5010790;28;20200;-57
2022/06/21 05:24:56;;;;;;;7.72;7.03;;;15.60;59.20;;;;;;5012373;28;20207;-58
2022/06/21 05:27:32;;;;;;;8.27;7.45;;;15.60;59.20;;;;;;5012185;28;20558;-57
2022/06/21 05:30:08;;;;;;;9.63;7.38;;;15.60;59.20;;;;;;5011263;28;20223;-56
2022/06/21 05:32:44;;;;;;;8.88;7.65;;;15.60;59.20;;;;;;5011981;28;20199;-57
2022/06/21 05:35:19;;;;;;;8.80;7.43;;;15.60;59.20;;;;;;5010226;28;20211;-57
2022/06/21 05:37:57;;;;;;;8.95;7.63;;;15.50;59.10;;;;;;5007882;28;20197;-56
2022/06/21 05:40:35;;;;;;;9.93;7.38;;;15.50;59.10;;;;;;5012118;28;20228;-57
2022/06/21 05:43:06;;;;;;;9.52;7.68;;;15.50;59.10;;;;;;5011425;28;20193;-58
2022/06/21 05:45:39;;;;;;;8.07;7.10;;;15.50;59.10;;;;;;5011326;28;20204;-56
2022/06/21 05:48:15;;;;;;;7.85;7.15;;;15.50;59.10;;;;;;5011224;28;20688;-57
2022/06/21 05:50:48;;;;;;;9.00;7.47;;;15.40;59.00;;;;;;5011459;28;20222;-57
2022/06/21 05:53:30;;;;;;;8.50;7.43;;;15.40;59.00;;;;;;5011145;28;20203;-56
2022/06/21 05:56:06;;;;;;;10.10;7.38;;;15.40;59.00;;;;;;5011734;28;20197;-57
2022/06/21 05:58:39;;;;;;;9.88;7.43;;;15.40;59.10;;;;;;5011598;28;20392;-57
2022/06/21 06:01:16;;;;;;;9.20;6.80;;;15.40;59.00;;;;;;5012101;28;20691;-55
2022/06/21 06:03:52;;;;;;;9.52;6.85;;;15.40;59.00;;;;;;5010752;28;20211;-56
2022/06/21 06:06:25;;;;;;;9.23;7.35;;;15.30;59.00;;;;;;5014646;28;20270;-57
2022/06/21 06:09:00;;;;;;;8.02;7.22;;;15.30;58.90;;;;;;5011288;28;20221;-54
2022/06/21 06:14:17;;;;;;;8.52;6.90;;;15.30;59.00;;;;;;5008808;28;20223;-57
2022/06/21 06:16:50;;;;;;;9.32;6.90;;;15.30;58.90;;;;;;5010725;28;20200;-55
2022/06/21 06:19:26;;;;;;;8.20;6.97;;;15.20;58.90;;;;;;5010781;28;20232;-56
2022/06/21 06:22:17;;;;;;;8.20;6.97;;;15.20;59.00;;;;;;5010683;28;20675;-56
2022/06/21 06:24:53;;;;;;;8.55;7.60;;;15.20;58.90;;;;;;5011601;28;20263;-56
2022/06/21 06:27:33;;;;;;;7.90;6.63;;;15.20;58.90;;;;;;5010531;28;20216;-57
2022/06/21 06:30:07;;;;;;;8.52;6.88;;;15.10;58.90;;;;;;5010619;28;20220;-58
2022/06/21 06:32:43;;;;;;;8.32;7.43;;;15.10;58.90;;;;;;5010605;28;20700;-55
2022/06/21 06:35:20;;;;;;;7.53;6.75;;;15.10;58.90;;;;;;5010700;28;20598;-57
2022/06/21 06:37:53;;;;;;;7.32;6.57;;;15.00;58.80;;;;;;5017155;28;20417;-58
2022/06/21 06:40:26;;;;;;;8.73;6.65;;;15.00;58.80;;;;;;5011138;28;20220;-55
2022/06/21 06:43:03;;;;;;;7.30;6.60;;;15.00;58.80;;;;;;5010464;28;20764;-56
2022/06/21 06:45:37;;;;;;;9.45;6.88;;;15.00;58.90;;;;;;5010916;28;20272;-56
2022/06/21 06:48:15;;;;;;;7.88;6.82;;;15.00;59.00;;;;;;5011109;28;20229;-56
2022/06/21 06:50:51;;;;;;;7.32;6.60;;;14.90;59.00;;;;;;5010630;28;20214;-56
2022/06/21 06:53:29;;;;;;;8.30;6.75;;;14.90;59.00;;;;;;5010882;28;20225;-57
2022/06/21 06:56:04;;;;;;;8.85;7.05;;;14.90;59.00;;;;;;5010858;28;20196;-55
2022/06/21 06:58:39;;;;;;;8.57;7.15;;;14.90;59.00;;;;;;5010490;28;20203;-55
2022/06/21 07:01:15;;;;;;;8.05;7.25;;;14.90;58.90;;;;;;5010926;28;20558;-55
2022/06/21 07:03:49;;;;;;;8.50;7.32;;;14.80;58.90;;;;;;5011282;28;20197;-56
2022/06/21 07:06:23;;;;;;;8.13;7.15;;;14.80;58.90;;;;;;5009588;28;20249;-55
2022/06/21 07:08:58;;;;;;;8.10;6.85;;;14.80;58.80;;;;;;5010097;28;20228;-57
2022/06/21 07:11:33;;;;;;;8.38;7.45;;;14.80;58.80;;;;;;5010249;28;20196;-55
2022/06/21 07:14:04;;;;;;;8.23;7.30;;;14.80;58.80;;;;;;5010447;28;20227;-56
2022/06/21 07:16:39;;;;;;;11.18;7.57;;;14.70;58.70;;;;;;5010090;28;20200;-57
2022/06/21 07:19:11;;;;;;;8.68;6.57;;;14.70;58.70;;;;;;5011227;28;20224;-55
2022/06/21 07:21:42;;;;;;;8.98;7.70;;;14.70;58.70;;;;;;5010108;28;20192;-60
2022/06/21 07:24:19;;;;;;;9.88;7.95;;;14.70;58.70;;;;;;5011193;28;20200;-54
2022/06/21 07:26:54;;;;;;;8.77;7.20;;;14.60;58.70;;;;;;5014589;28;20212;-55
2022/06/21 07:29:29;;;;;;;9.35;7.55;;;14.60;58.70;;;;;;5013911;28;20220;-56
2022/06/21 07:32:05;;;;;;;9.77;7.57;;;14.50;58.60;;;;;;5014438;28;20200;-55
2022/06/21 07:34:38;;;;;;;8.20;7.25;;;14.50;58.60;;;;;;5034999;22;20231;-53
2022/06/21 07:37:13;;;;;;;8.48;7.57;;;14.50;58.60;;;;;;5021893;28;20657;-49
2022/06/21 07:39:58;;;;;;;8.55;7.65;;;14.50;58.70;;;;;;5013733;28;20303;-47
2022/06/21 07:42:35;;;;;;;8.45;7.15;;;14.40;58.60;;;;;;5016065;28;20208;-48
2022/06/21 07:45:21;;;;;;;7.97;7.15;;;14.40;58.70;;;;;;5033425;28;20196;-56
2022/06/21 07:48:06;;;;;;;9.50;7.38;;;14.40;58.70;;;;;;5033645;28;20227;-47
2022/06/21 07:50:43;;;;;;;8.45;7.25;;;14.40;58.70;;;;;;5033663;28;20226;-49
2022/06/21 07:53:27;;;;;;;9.35;7.32;;;14.40;58.70;;;;;;5034280;28;20538;-51
2022/06/21 07:56:05;;;;;;;9.00;7.55;;;14.30;58.70;;;;;;5034317;28;20687;-48
2022/06/21 07:58:48;;;;;;;8.52;7.20;;;14.30;58.70;;;;;;5034364;28;20258;-47
2022/06/21 08:07:07;;;;;;;8.52;7.43;;;14.20;58.70;;;;;;5023810;28;20253;-52
2022/06/21 08:09:41;;;;;;;8.82;7.50;;;14.20;59.20;;;;;;5033972;28;20692;-48
2022/06/21 08:12:17;;;;;;;9.32;7.43;;;14.20;58.70;;;;;;5033746;28;20250;-49
2022/06/21 08:14:48;;;;;;;9.20;7.55;;;14.20;58.70;;;;;;5033793;28;20234;-51
2022/06/21 08:17:27;;;;;;;8.02;7.20;;;14.20;58.70;;;;;;5033687;28;20196;-50
2022/06/21 08:20:03;;;;;;;9.63;7.25;;;14.10;58.70;;;;;;5034029;28;20274;-49
2022/06/21 08:22:39;;;;;;;9.48;7.10;;;14.10;58.70;;;;;;5033838;28;20663;-50
2022/06/21 08:25:20;;;;;;;9.48;6.97;;;14.10;58.70;;;;;;5033955;28;20258;-49
2022/06/21 08:27:57;;;;;;;8.70;7.07;;;14.10;58.70;;;;;;5033621;28;20223;-48
2022/06/21 08:30:33;;;;;;;9.25;7.68;;;14.10;58.70;;;;;;5033480;28;20223;-52
2022/06/21 08:33:08;;;;;;;9.27;6.85;;;14.10;58.80;;;;;;5033294;28;20262;-49
2022/06/21 08:35:42;;;;;;;12.32;7.93;;;14.00;58.80;;;;;;5032418;28;20632;-51
2022/06/21 08:38:16;;;;;;;8.55;7.18;;;14.00;58.70;;;;;;5032909;28;20215;-50
2022/06/21 08:41:51;;;;;;;8.57;7.53;;;14.00;58.70;;;;;;5033534;28;20266;-48
2022/06/21 08:44:27;;;;;;;8.48;6.85;;;14.00;58.80;;;;;;5033375;28;20287;-53
2022/06/21 08:47:26;;;;;;;11.30;8.02;;;13.90;58.70;;;;;;5035253;28;20564;-48
2022/06/21 08:50:34;;;;;;;8.80;7.00;;;13.90;58.70;;;;;;5013466;28;20763;-47
2022/06/21 08:53:19;;;;;;;9.95;7.55;;;13.90;58.70;;;;;;5017860;28;20251;-49
2022/06/21 08:55:55;;;;;;;9.07;7.50;;;13.90;58.70;;;;;;5033087;28;20715;-51
2022/06/21 08:58:38;;;;;;;10.52;7.60;;;13.80;58.70;;;;;;5034928;28;20202;-47
2022/06/21 09:01:18;;;;;;;9.73;7.35;;;13.80;58.70;;;;;;5032668;28;20200;-52
2022/06/21 09:04:15;;;;;;;10.02;7.63;;;13.80;58.70;;;;;;5032440;28;20680;-50
2022/06/21 09:06:59;;;;;;;9.75;7.90;;;13.80;58.80;;;;;;5033320;28;20207;-54
2022/06/21 09:09:47;;;;;;;8.13;6.70;;;13.80;58.80;;;;;;5032471;28;20227;-51
2022/06/21 09:12:28;;;;;;;14.43;10.60;;;13.70;58.70;;;;;;5032976;28;20196;-51
2022/06/21 09:15:24;;;;;;;14.30;10.88;;;13.80;59.20;;;;;;5032560;28;20196;-55
2022/06/21 09:18:07;;;;;;;11.02;8.70;;;13.70;59.80;;;;;;5031832;28;20200;-50
2022/06/21 09:20:45;;;;;;;11.73;8.57;;;13.70;59.60;;;;;;5032662;28;20212;-52
2022/06/21 09:23:33;;;;;;;12.23;8.77;;;13.70;59.50;;;;;;5032200;28;20210;-54
2022/06/21 09:26:11;;;;;;;12.00;8.90;;;13.70;59.40;;;;;;5029556;28;20200;-54
2022/06/21 09:28:46;;;;;;;11.45;8.57;;;13.70;59.40;;;;;;5012379;28;20274;-51
2022/06/21 09:31:25;;;;;;;10.38;8.50;;;13.70;59.30;;;;;;5021462;28;20238;-53
2022/06/21 09:34:02;;;;;;;11.00;9.02;;;13.60;59.20;;;;;;5035915;22;20228;-55
2022/06/21 09:36:40;;;;;;;10.05;7.97;;;13.60;59.30;;;;;;5012504;28;20208;-55
2022/06/21 09:39:20;;;;;;;11.88;8.40;;;13.60;59.20;;;;;;5004139;28;20582;-55
2022/06/21 09:42:00;;;;;;;11.07;8.65;;;13.60;59.30;;;;;;5000718;28;20200;-54
2022/06/21 09:44:39;;;;;;;10.73;8.68;;;13.60;59.20;;;;;;4993836;28;20208;-55
2022/06/21 09:47:18;;;;;;;10.68;8.05;;;13.60;59.20;;;;;;5002001;28;20656;-55
2022/06/21 09:50:03;;;;;;;12.75;8.60;;;13.60;59.20;;;;;;5011632;28;20696;-55
2022/06/21 09:52:43;;;;;;;11.18;8.80;;;13.50;59.20;;;;;;5010692;28;20196;-53
2022/06/21 09:55:25;;;;;;;9.82;8.15;;;13.50;59.10;;;;;;5011271;28;20207;-53
2022/06/21 09:58:04;;;;;;;11.57;8.82;;;13.50;59.10;;;;;;5011239;28;20236;-54
2022/06/21 10:00:41;;;;;;;11.13;7.95;;;13.50;59.10;;;;;;4994814;28;20708;-55
2022/06/21 10:03:28;;;;;;;9.00;7.53;;;13.50;59.00;;;;;;4991338;28;20204;-54
2022/06/21 10:06:08;;;;;;;12.07;8.55;;;13.50;59.00;;;;;;4991560;28;20204;-56
2022/06/21 10:09:18;;;;;;;9.60;7.72;;;13.40;59.00;;;;;;5010343;28;20235;-54
2022/06/21 10:12:00;;;;;;;9.40;7.97;;;13.40;59.00;;;;;;5001175;28;20203;-55
2022/06/21 10:14:52;;;;;;;9.18;8.02;;;13.40;59.00;;;;;;5011684;28;20653;-55
2022/06/21 10:17:56;;;;;;;11.13;8.48;;;13.40;59.00;;;;;;5009271;28;20573;-55
2022/06/21 10:20:42;;;;;;;9.57;7.82;;;13.30;58.90;;;;;;4998826;28;20209;-56
2022/06/21 10:23:38;;;;;;;9.68;7.97;;;13.30;58.90;;;;;;5010349;28;20266;-56
2022/06/21 10:26:41;;;;;;;7.97;7.18;;;13.30;58.90;;;;;;5011077;28;20542;-53
2022/06/21 10:29:38;;;;;;;8.13;7.32;;;13.30;58.90;;;;;;5010542;28;20239;-55
2022/06/21 10:32:23;;;;;;;11.02;7.82;;;13.30;58.90;;;;;;4976242;28;20209;-56
2022/06/21 10:35:22;;;;;;;9.48;7.55;;;13.30;58.90;;;;;;5010789;28;20205;-54
2022/06/21 10:38:10;;;;;;;9.23;7.13;;;13.20;58.90;;;;;;5010454;28;20203;-55
2022/06/21 10:41:00;;;;;;;10.60;7.10;;;13.20;58.90;;;;;;5010328;28;20225;-55
2022/06/21 10:43:58;;;;;;;9.45;7.72;;;13.20;58.90;;;;;;5011316;28;20204;-54
2022/06/21 10:46:35;;;;;;;8.85;7.20;;;13.20;58.90;;;;;;5010144;28;20193;-54
2022/06/21 10:49:27;;;;;;;8.50;6.88;;;13.20;58.90;;;;;;5011632;28;20232;-54
2022/06/21 10:52:17;;;;;;;8.57;6.68;;;13.10;58.90;;;;;;5008337;28;20196;-55
2022/06/21 10:55:31;;;;;;;9.48;7.28;;;13.10;58.80;;;;;;5008731;28;20201;-52
2022/06/21 10:58:22;;;;;;;8.45;6.95;;;13.10;58.80;;;;;;5010391;28;20280;-54
2022/06/21 11:01:21;;;;;;;8.23;6.85;;;13.10;58.80;;;;;;5012901;28;20217;-54
2022/06/21 11:04:22;;;;;;;8.68;6.75;;;13.10;58.80;;;;;;4994662;28;20193;-57
2022/06/21 11:06:58;;;;;;;8.63;7.10;;;13.00;58.80;;;;;;5012376;28;20595;-55
2022/06/21 11:09:33;;;;;;;9.13;7.20;;;13.00;58.80;;;;;;5014256;28;20243;-55
2022/06/21 11:15:04;;;;;;;8.75;6.65;;;13.00;58.80;;;;;;5013224;28;20194;-53
2022/06/21 11:17:43;;;;;;;7.88;6.32;;;13.00;58.80;;;;;;5014443;28;20200;-54
2022/06/21 11:20:23;;;;;;;7.97;6.47;;;13.00;58.90;;;;;;5002897;28;20222;-54
2022/06/21 11:23:07;;;;;;;7.78;6.60;;;12.90;58.80;;;;;;4999355;28;20197;-55
2022/06/21 11:25:46;;;;;;;8.23;6.70;;;12.90;58.80;;;;;;5014313;28;20571;-53
2022/06/21 11:28:31;;;;;;;7.65;5.82;;;12.90;58.80;;;;;;5013758;28;20727;-55
2022/06/21 11:31:10;;;;;;;7.93;6.65;;;12.90;58.80;;;;;;5013013;28;20212;-55
2022/06/21 11:33:57;;;;;;;8.15;6.60;;;12.90;59.10;;;;;;5011346;28;20200;-55
2022/06/21 11:36:35;;;;;;;7.53;6.20;;;12.90;58.80;;;;;;5006322;28;20184;-57
2022/06/21 11:39:18;;;;;;;8.93;6.78;;;12.90;58.80;;;;;;5014337;28;20220;-57
2022/06/21 11:42:08;;;;;;;7.28;6.30;;;12.90;58.80;;;;;;5013324;28;20189;-59
2022/06/21 11:45:12;;;;;;;7.82;6.28;;;12.80;58.70;;;;;;5013635;28;20208;-54
2022/06/21 11:47:58;;;;;;;6.03;5.43;;;12.80;58.70;;;;;;4999400;28;20196;-55
2022/06/21 11:50:36;;;;;;;6.63;5.63;;;12.80;58.70;;;;;;5013573;28;20243;-54
2022/06/21 11:53:35;;;;;;;7.25;6.13;;;12.80;58.70;;;;;;4996121;28;20208;-56
2022/06/21 11:56:12;;;;;;;7.13;6.30;;;12.80;58.70;;;;;;4994983;28;20190;-57
2022/06/21 11:58:47;;;;;;;6.22;5.10;;;12.80;58.70;;;;;;4993384;28;20208;-54
2022/06/21 12:01:25;;;;;;;7.55;5.63;;;12.70;58.70;;;;;;4994358;28;20201;-56
2022/06/21 12:04:12;;;;;;;7.75;6.18;;;12.70;58.70;;;;;;4994709;28;20201;-55
2022/06/21 12:06:48;;;;;;;7.20;5.53;;;12.70;58.70;;;;;;5000108;28;20204;-58
2022/06/21 12:09:24;;;;;;;7.15;5.03;;;12.70;58.80;;;;;;5011944;28;20239;-57
2022/06/21 12:12:09;;;;;;;7.00;5.18;;;12.70;58.80;;;;;;5012764;28;20200;-58
2022/06/21 12:14:52;;;;;;;6.25;5.63;;;12.70;58.70;;;;;;5012422;28;20199;-55
2022/06/21 12:17:24;;;;;;;6.78;5.45;;;12.70;58.70;;;;;;5011861;28;20568;-55
2022/06/21 12:20:00;;;;;;;6.65;5.72;;;12.60;58.70;;;;;;5012074;28;20208;-57
2022/06/21 12:22:34;;;;;;;6.70;5.60;;;12.60;58.70;;;;;;5011962;28;20193;-55
2022/06/21 12:25:06;;;;;;;8.48;5.68;;;12.60;58.70;;;;;;5011780;28;20204;-56
2022/06/21 12:27:37;;;;;;;7.20;5.40;;;12.60;58.70;;;;;;5011847;28;20407;-56
2022/06/21 12:30:17;;;;;;;7.97;6.18;;;12.60;58.60;;;;;;5012104;28;20704;-55
2022/06/21 12:32:49;;;;;;;6.15;5.55;;;12.60;58.70;;;;;;5011778;28;20199;-56
2022/06/21 12:35:32;;;;;;;7.45;5.22;;;12.50;58.70;;;;;;5012474;28;20208;-57
2022/06/21 12:38:03;;;;;;;7.50;5.70;;;12.60;58.60;;;;;;5011828;28;20283;-57
2022/06/21 12:40:38;;;;;;;6.63;5.13;;;12.50;58.60;;;;;;5011320;28;20212;-56
2022/06/21 12:43:29;;;;;;;7.30;5.05;;;12.50;58.60;;;;;;5011750;28;20204;-57
2022/06/21 12:46:08;;;;;;;6.75;5.28;;;12.50;58.50;;;;;;5011457;28;20211;-57
2022/06/21 12:49:03;;;;;;;6.30;5.05;;;12.50;58.50;;;;;;5010635;28;20284;-56
2022/06/21 12:51:45;;;;;;;5.53;4.97;;;12.50;58.50;;;;;;5011818;28;20192;-58
2022/06/21 12:54:37;;;;;;;7.53;5.63;;;12.50;58.50;;;;;;5011503;28;20569;-57
2022/06/21 12:57:23;;;;;;;6.88;5.38;;;12.40;58.50;;;;;;5011313;28;20193;-55
2022/06/21 13:00:15;;;;;;;7.90;4.75;;;12.50;58.50;;;;;;5011491;28;20224;-59
2022/06/21 13:03:17;;;;;;;6.47;5.10;;;12.40;58.50;;;;;;5010560;28;20648;-59
2022/06/21 13:05:59;;;;;;;6.13;5.13;;;12.40;58.40;;;;;;4991565;28;20203;-58
2022/06/21 13:09:08;;;;;;;6.93;5.03;;;12.40;58.40;;;;;;4991628;28;20201;-58
2022/06/21 13:11:55;;;;;;;7.15;4.93;;;12.40;58.40;;;;;;4989039;28;20212;-60
2022/06/21 13:14:52;;;;;;;6.93;5.20;;;12.30;58.30;;;;;;4991852;28;20579;-57
2022/06/21 13:17:54;;;;;;;5.63;5.03;;;12.30;58.40;;;;;;4997360;28;20205;-57
2022/06/21 13:20:31;;;;;;;6.38;4.68;;;12.30;58.40;;;;;;5010976;28;20569;-58
2022/06/21 13:23:12;;;;;;;6.05;5.05;;;12.30;58.40;;;;;;5010308;28;20752;-57
2022/06/21 13:25:53;;;;;;;6.75;4.80;;;12.30;58.40;;;;;;5011118;28;20200;-57
2022/06/21 13:28:59;;;;;;;6.82;5.28;;;12.30;58.40;;;;;;5010973;28;20201;-57
2022/06/21 13:31:35;;;;;;;6.45;4.80;;;12.20;58.40;;;;;;5008240;28;20197;-58
2022/06/21 13:34:19;;;;;;;6.68;4.95;;;12.20;58.30;;;;;;4993184;28;20205;-57
2022/06/21 13:36:52;;;;;;;6.05;4.53;;;12.30;58.40;;;;;;5010882;28;20201;-57
2022/06/21 13:39:33;;;;;;;7.70;4.90;;;12.20;58.40;;;;;;5010459;28;20227;-57
2022/06/21 13:45:05;;;;;;;5.45;4.57;;;12.20;58.40;;;;;;5010964;28;20192;-57
2022/06/21 13:47:44;;;;;;;6.32;4.93;;;12.20;58.40;;;;;;5010440;28;20571;-56
2022/06/21 13:50:21;;;;;;;5.00;4.18;;;12.20;58.30;;;;;;5010737;28;20225;-55
2022/06/21 13:52:59;;;;;;;5.78;4.60;;;12.10;58.30;;;;;;5010792;28;20196;-56
2022/06/21 13:55:38;;;;;;;6.10;4.28;;;12.10;58.30;;;;;;5010776;28;20291;-57
2022/06/21 13:58:19;;;;;;;5.35;4.15;;;12.10;58.30;;;;;;5011165;28;20203;-56
2022/06/21 14:00:57;;;;;;;7.55;4.35;;;12.10;58.30;;;;;;5010494;28;20217;-57
2022/06/21 14:03:47;;;;;;;6.07;4.70;;;12.10;58.30;;;;;;5010001;28;20204;-55